createdAt,value
2023-02-22T00:02:40.257Z,30.23
2023-02-22T00:05:47.471Z,28.40
2023-02-22T00:08:52.668Z,26.13
2023-02-22T00:11:58.727Z,38.42
2023-02-22T00:15:03.646Z,46.58
2023-02-22T00:18:10.891Z,44.88
2023-02-22T00:21:17.354Z,38.45
2023-02-22T00:24:24.656Z,38.13
2023-02-22T00:27:29.324Z,39.22
2023-02-22T00:30:34.437Z,51.05
2023-02-22T00:33:39.849Z,49.45
2023-02-22T00:36:49.004Z,49.80
2023-02-22T00:39:53.889Z,44.97
2023-02-22T00:43:01.109Z,43.53
2023-02-22T00:46:05.827Z,41.00
2023-02-22T00:49:10.411Z,46.92
2023-02-22T00:52:15.099Z,55.97
2023-02-22T00:55:32.351Z,52.08
2023-02-22T00:58:36.709Z,49.40
2023-02-22T01:01:41.134Z,43.55
2023-02-22T01:04:46.640Z,42.80
2023-02-22T01:07:51.500Z,43.72
2023-02-22T01:10:56.461Z,40.13
2023-02-22T01:14:00.824Z,38.90
2023-02-22T01:17:05.954Z,34.67
2023-02-22T01:20:13.109Z,31.15
2023-02-22T01:23:17.600Z,41.40
2023-02-22T01:26:22.186Z,39.10
2023-02-22T01:29:27.100Z,42.95
2023-02-22T01:32:33.715Z,40.67
2023-02-22T01:35:41.035Z,36.15
2023-02-22T01:38:46.228Z,37.58
2023-02-22T01:41:53.723Z,35.97
2023-02-22T01:45:42.743Z,44.20
2023-02-22T01:48:52.298Z,33.80
2023-02-22T01:52:02.101Z,35.80
2023-02-22T01:55:07.304Z,36.90
2023-02-22T01:58:13.071Z,34.83
2023-02-22T02:01:19.799Z,31.17
2023-02-22T02:04:25.641Z,29.85
2023-02-22T02:07:32.489Z,32.22
2023-02-22T02:10:37.540Z,33.67
2023-02-22T02:13:44.011Z,37.28
2023-02-22T02:16:52.039Z,41.30
2023-02-22T02:20:17.079Z,38.00
2023-02-22T02:23:52.622Z,34.20
2023-02-22T02:27:18.816Z,33.20
2023-02-22T02:30:57.530Z,31.63
2023-02-22T02:34:31.841Z,33.85
2023-02-22T02:38:08.906Z,33.55
2023-02-22T02:41:41.065Z,33.35
2023-02-22T02:45:09.987Z,33.33
2023-02-22T02:48:17.121Z,32.50
2023-02-22T02:51:24.066Z,40.17
2023-02-22T02:54:30.249Z,39.92
2023-02-22T02:57:34.897Z,40.95
2023-02-22T03:00:42.194Z,36.97
2023-02-22T03:04:05.164Z,38.35
2023-02-22T03:07:42.852Z,39.13
2023-02-22T03:11:16.756Z,37.95
2023-02-22T03:14:42.173Z,36.35
2023-02-22T03:18:06.749Z,33.85
2023-02-22T03:21:30.701Z,38.25
2023-02-22T03:25:13.141Z,37.95
2023-02-22T03:28:22.178Z,38.70
2023-02-22T03:31:31.380Z,35.25
2023-02-22T03:34:52.692Z,37.85
2023-02-22T03:38:04.165Z,41.95
2023-02-22T03:41:11.756Z,40.58
2023-02-22T03:44:22.824Z,37.42
2023-02-22T03:47:43.359Z,38.50
2023-02-22T03:50:50.078Z,35.83
2023-02-22T03:53:57.079Z,39.05
2023-02-22T03:57:17.775Z,38.92
2023-02-22T04:00:28.004Z,39.40
2023-02-22T04:03:32.687Z,42.88
2023-02-22T04:06:37.821Z,40.78
2023-02-22T04:09:42.480Z,40.95
2023-02-22T04:12:48.225Z,39.95
2023-02-22T04:15:54.272Z,42.47
2023-02-22T04:18:59.083Z,38.78
2023-02-22T04:22:03.448Z,41.25
2023-02-22T04:25:12.147Z,31.85
2023-02-22T04:28:17.649Z,40.28
2023-02-22T04:31:33.759Z,39.70
2023-02-22T04:34:38.733Z,39.70
2023-02-22T04:37:43.408Z,44.13
2023-02-22T04:40:48.100Z,42.30
2023-02-22T04:43:52.852Z,36.05
2023-02-22T04:47:01.652Z,39.85
2023-02-22T04:50:08.712Z,51.00
2023-02-22T04:53:13.300Z,54.60
2023-02-22T04:56:19.413Z,49.72
2023-02-22T04:59:24.754Z,50.90
2023-02-22T05:02:40.760Z,56.78
2023-02-22T05:05:45.413Z,61.97
2023-02-22T05:08:50.354Z,57.63
2023-02-22T05:11:55.251Z,57.10
2023-02-22T05:14:59.980Z,66.22
2023-02-22T05:18:04.991Z,52.22
2023-02-22T05:21:10.545Z,70.25
2023-02-22T05:24:15.886Z,61.22
2023-02-22T05:27:20.652Z,68.55
2023-02-22T05:30:31.275Z,60.13
2023-02-22T05:33:35.703Z,65.50
2023-02-22T05:36:40.131Z,62.95
2023-02-22T05:39:46.474Z,67.72
2023-02-22T05:42:51.990Z,63.97
2023-02-22T05:45:56.255Z,61.60
2023-02-22T05:49:00.755Z,64.15
2023-02-22T05:52:05.446Z,62.35
2023-02-22T05:55:14.111Z,64.32
2023-02-22T05:58:18.770Z,65.85
2023-02-22T06:01:23.336Z,52.72
2023-02-22T06:04:28.022Z,56.88
2023-02-22T06:07:32.794Z,61.72
2023-02-22T06:10:37.536Z,80.93
2023-02-22T06:13:42.427Z,53.72
2023-02-22T06:16:54.401Z,57.90
2023-02-22T06:19:59.457Z,59.85
2023-02-22T06:23:04.087Z,58.95
2023-02-22T06:26:08.498Z,58.25
2023-02-22T06:29:13.429Z,71.63
2023-02-22T06:32:18.158Z,54.03
2023-02-22T06:35:22.952Z,78.30
2023-02-22T06:38:27.928Z,77.68
2023-02-22T06:41:32.473Z,68.32
2023-02-22T06:44:37.143Z,87.97
2023-02-22T06:47:42.320Z,63.70
2023-02-22T06:50:47.217Z,55.78
2023-02-22T06:53:52.046Z,60.38
2023-02-22T06:56:56.943Z,47.70
2023-02-22T07:00:01.576Z,74.95
2023-02-22T07:03:06.132Z,65.28
2023-02-22T07:06:10.902Z,58.72
2023-02-22T07:09:17.841Z,72.13
2023-02-22T07:12:22.142Z,63.95
2023-02-22T07:15:29.813Z,55.75
2023-02-22T07:18:34.522Z,55.58
2023-02-22T07:21:39.610Z,55.05
2023-02-22T07:24:44.274Z,60.60
2023-02-22T07:27:48.852Z,49.47
2023-02-22T07:30:53.417Z,50.13
2023-02-22T07:33:57.941Z,54.65
2023-02-22T07:37:02.771Z,55.95
2023-02-22T07:40:07.618Z,53.13
2023-02-22T07:43:27.787Z,53.47
2023-02-22T07:46:32.424Z,60.80
2023-02-22T07:49:37.310Z,67.15
2023-02-22T07:52:50.019Z,69.70
2023-02-22T07:55:55.354Z,79.05
2023-02-22T07:59:01.363Z,51.67
2023-02-22T08:02:06.177Z,54.67
2023-02-22T08:05:12.952Z,50.78
2023-02-22T08:08:19.742Z,74.45
2023-02-22T08:11:25.872Z,66.30
2023-02-22T08:14:30.779Z,56.63
2023-02-22T08:17:35.685Z,51.38
2023-02-22T08:20:43.245Z,60.97
2023-02-22T08:23:54.543Z,49.22
2023-02-22T08:26:59.306Z,57.00
2023-02-22T08:30:05.692Z,49.63
2023-02-22T08:33:14.650Z,56.28
2023-02-22T08:36:19.768Z,46.08
2023-02-22T08:39:24.582Z,52.20
2023-02-22T08:42:29.751Z,50.45
2023-02-22T08:45:35.128Z,50.20
2023-02-22T08:48:51.231Z,55.50
2023-02-22T08:51:57.283Z,50.00
2023-02-22T08:55:02.817Z,53.28
2023-02-22T08:58:12.453Z,42.63
2023-02-22T09:01:27.951Z,45.08
2023-02-22T09:05:00.656Z,41.67
2023-02-22T09:08:06.371Z,56.67
2023-02-22T09:11:14.949Z,51.03
2023-02-22T09:14:20.152Z,46.17
2023-02-22T09:17:25.246Z,45.78
2023-02-22T09:20:31.122Z,50.20
2023-02-22T09:23:36.039Z,53.53
2023-02-22T09:26:47.415Z,59.70
2023-02-22T09:29:56.426Z,62.20
2023-02-22T09:33:12.552Z,67.30
2023-02-22T09:36:26.038Z,66.82
2023-02-22T09:39:35.852Z,71.80
2023-02-22T09:42:54.290Z,58.80
2023-02-22T09:46:34.440Z,65.03
2023-02-22T09:50:03.098Z,71.70
2023-02-22T09:53:42.476Z,57.95
2023-02-22T09:56:50.281Z,66.35
2023-02-22T10:00:16.760Z,54.38
2023-02-22T10:03:34.656Z,58.50
2023-02-22T10:06:42.540Z,62.45
2023-02-22T10:09:49.714Z,49.90
2023-02-22T10:13:17.220Z,53.00
2023-02-22T10:16:42.401Z,48.72
2023-02-22T10:20:13.607Z,48.42
2023-02-22T10:23:38.737Z,49.47
2023-02-22T10:26:47.056Z,50.03
2023-02-22T10:30:18.889Z,51.10
2023-02-22T10:33:47.477Z,60.75
2023-02-22T10:37:03.485Z,54.33
2023-02-22T10:40:23.171Z,54.35
2023-02-22T10:43:28.242Z,42.45
2023-02-22T10:46:35.336Z,43.47
2023-02-22T10:49:57.092Z,46.53
2023-02-22T10:53:02.060Z,49.60
2023-02-22T10:56:21.766Z,46.50
2023-02-22T10:59:33.672Z,39.72
2023-02-22T11:02:38.461Z,37.92
2023-02-22T11:05:44.210Z,35.88
2023-02-22T11:08:51.813Z,40.38
2023-02-22T11:12:27.957Z,38.95
2023-02-22T11:15:33.013Z,35.00
2023-02-22T11:18:38.146Z,38.97
2023-02-22T11:21:44.586Z,36.78
2023-02-22T11:24:56.299Z,37.20
2023-02-22T11:28:30.984Z,33.42
2023-02-22T11:31:44.439Z,30.02
2023-02-22T11:35:03.549Z,35.47
2023-02-22T11:38:27.013Z,31.35
2023-02-22T11:41:35.428Z,32.30
2023-02-22T11:44:44.294Z,38.83
2023-02-22T11:47:59.989Z,39.85
2023-02-22T11:51:36.639Z,32.75
2023-02-22T11:55:09.973Z,36.53
2023-02-22T11:58:42.943Z,33.03
2023-02-22T12:02:20.978Z,28.50
2023-02-22T12:06:01.468Z,31.83
2023-02-22T12:09:33.506Z,32.25
2023-02-22T12:13:10.744Z,26.02
2023-02-22T12:16:44.325Z,23.85
2023-02-22T12:20:10.087Z,31.53
2023-02-22T12:23:23.394Z,26.77
2023-02-22T12:26:42.335Z,22.40
2023-02-22T12:29:58.072Z,29.45
2023-02-22T12:33:25.305Z,31.73
2023-02-22T12:36:46.793Z,29.63
2023-02-22T12:40:09.609Z,25.85
2023-02-22T12:43:25.897Z,30.70
2023-02-22T12:46:44.409Z,30.48
2023-02-22T12:50:02.288Z,29.27
2023-02-22T12:53:32.946Z,25.30
2023-02-22T12:57:20.193Z,30.30
2023-02-22T13:00:47.074Z,32.55
2023-02-22T13:03:56.011Z,29.88
2023-02-22T13:07:25.930Z,27.77
2023-02-22T13:10:53.242Z,27.80
2023-02-22T13:14:45.560Z,32.25
2023-02-22T13:18:19.606Z,26.60
2023-02-22T13:22:03.093Z,28.02
2023-02-22T13:25:58.584Z,22.90
2023-02-22T13:29:43.070Z,23.67
2023-02-22T13:33:34.725Z,23.73
2023-02-22T13:36:54.829Z,21.38
2023-02-22T13:41:03.171Z,23.40
2023-02-22T13:44:38.452Z,24.52
2023-02-22T13:48:34.392Z,18.52
2023-02-22T13:51:51.789Z,19.67
2023-02-22T13:55:04.118Z,19.33
2023-02-22T13:58:12.713Z,20.45
2023-02-22T14:01:42.139Z,20.30
2023-02-22T14:04:47.681Z,22.63
2023-02-22T14:07:53.114Z,19.80
2023-02-22T14:11:36.798Z,19.75
2023-02-22T14:15:58.267Z,20.60
2023-02-22T14:19:23.896Z,20.08
2023-02-22T14:22:30.004Z,19.92
2023-02-22T14:25:43.310Z,21.63
2023-02-22T14:29:08.165Z,20.77
2023-02-22T14:32:15.498Z,20.88
2023-02-22T14:35:30.070Z,16.92
2023-02-22T14:38:45.051Z,20.70
2023-02-22T14:42:06.801Z,18.27
2023-02-22T14:45:30.106Z,18.55
2023-02-22T14:48:43.025Z,18.25
2023-02-22T14:52:04.671Z,24.25
2023-02-22T14:55:25.545Z,20.45
2023-02-22T14:59:13.253Z,22.67
2023-02-22T15:02:20.601Z,16.70
2023-02-22T15:05:34.096Z,22.85
2023-02-22T15:08:41.753Z,19.85
2023-02-22T15:11:46.367Z,20.33
2023-02-22T15:15:12.782Z,21.05
2023-02-22T15:18:39.875Z,19.30
2023-02-22T15:21:49.971Z,20.77
2023-02-22T15:25:02.348Z,19.98
2023-02-22T15:28:09.567Z,22.08
2023-02-22T15:31:39.141Z,21.02
2023-02-22T15:34:44.153Z,19.20
2023-02-22T15:38:20.207Z,18.83
2023-02-22T15:41:33.185Z,20.45
2023-02-22T15:44:43.315Z,18.58
2023-02-22T15:47:49.943Z,19.02
2023-02-22T15:51:04.562Z,19.88
2023-02-22T15:54:15.669Z,18.63
2023-02-22T15:57:27.708Z,19.10
2023-02-22T16:00:38.375Z,19.52
2023-02-22T16:03:51.525Z,21.98
2023-02-22T16:07:17.161Z,18.05
2023-02-22T16:10:29.823Z,19.38
2023-02-22T16:13:35.993Z,21.27
2023-02-22T16:16:41.809Z,19.27
2023-02-22T16:19:46.755Z,18.98
2023-02-22T16:22:51.547Z,16.77
2023-02-22T16:26:27.863Z,17.50
2023-02-22T16:29:33.048Z,19.90
2023-02-22T16:32:37.844Z,16.90
2023-02-22T16:35:52.313Z,16.10
2023-02-22T16:38:57.393Z,16.75
2023-02-22T16:42:05.185Z,18.67
2023-02-22T16:45:15.815Z,13.52
2023-02-22T16:48:24.720Z,17.30
2023-02-22T16:51:39.780Z,15.93
2023-02-22T16:54:46.036Z,17.08
2023-02-22T16:57:54.981Z,18.52
2023-02-22T17:00:59.713Z,15.35
2023-02-22T17:04:15.714Z,17.58
2023-02-22T17:07:29.974Z,15.00
2023-02-22T17:10:35.368Z,14.93
2023-02-22T17:13:42.815Z,16.73
2023-02-22T17:16:47.886Z,14.68
2023-02-22T17:19:53.226Z,17.58
2023-02-22T17:23:01.337Z,16.60
2023-02-22T17:26:05.959Z,19.25
2023-02-22T17:29:10.905Z,19.40
2023-02-22T17:32:15.877Z,22.25
2023-02-22T17:35:23.318Z,18.92
2023-02-22T17:38:30.322Z,19.25
2023-02-22T17:41:35.155Z,21.08
2023-02-22T17:44:40.014Z,18.58
2023-02-22T17:47:45.248Z,20.58
2023-02-22T17:50:50.014Z,20.23
2023-02-22T17:53:55.086Z,19.27
2023-02-22T17:57:00.782Z,18.35
2023-02-22T18:00:13.408Z,21.35
2023-02-22T18:03:24.856Z,17.88
2023-02-22T18:06:32.785Z,19.92
2023-02-22T18:09:37.476Z,19.88
2023-02-22T18:12:43.336Z,19.42
2023-02-22T18:15:48.543Z,19.42
2023-02-22T18:18:55.037Z,19.52
2023-02-22T18:22:00.296Z,20.40
2023-02-22T18:25:05.285Z,17.83
2023-02-22T18:28:10.077Z,20.58
2023-02-22T18:31:18.929Z,20.42
2023-02-22T18:34:25.132Z,20.25
2023-02-22T18:37:30.343Z,21.80
2023-02-22T18:40:35.477Z,21.65
2023-02-22T18:43:41.259Z,19.95
2023-02-22T18:46:46.192Z,19.33
2023-02-22T18:49:50.706Z,24.63
2023-02-22T18:52:55.658Z,22.33
2023-02-22T18:56:09.553Z,22.40
2023-02-22T19:05:26.184Z,29.27
2023-02-22T19:08:32.493Z,32.05
2023-02-22T19:11:40.148Z,34.50
2023-02-22T19:14:46.140Z,34.70
2023-02-22T19:17:50.766Z,35.92
2023-02-22T19:21:02.952Z,34.67
2023-02-22T19:24:07.873Z,36.10
2023-02-22T19:27:13.793Z,37.05
2023-02-22T19:30:18.498Z,35.20
2023-02-22T19:33:26.066Z,38.10
2023-02-22T19:36:32.505Z,38.88
2023-02-22T19:39:38.499Z,40.83
2023-02-22T19:42:43.226Z,40.63
2023-02-22T19:45:48.987Z,39.70
2023-02-22T19:48:57.816Z,39.38
2023-02-22T19:52:06.592Z,47.58
2023-02-22T19:55:14.520Z,43.08
2023-02-22T19:58:19.189Z,42.50
2023-02-22T20:01:33.679Z,42.10
2023-02-22T20:04:38.480Z,45.15
2023-02-22T20:07:43.639Z,44.45
2023-02-22T20:10:48.232Z,42.03
2023-02-22T20:13:55.627Z,46.33
2023-02-22T20:17:01.462Z,49.65
2023-02-22T20:20:07.138Z,42.00
2023-02-22T20:23:12.184Z,45.42
2023-02-22T20:26:22.393Z,44.28
2023-02-22T20:29:30.067Z,43.53
2023-02-22T20:32:35.612Z,42.63
2023-02-22T20:35:40.454Z,43.60
2023-02-22T20:38:45.833Z,46.08
2023-02-22T20:41:50.991Z,44.63
2023-02-22T20:44:55.638Z,40.45
2023-02-22T20:48:00.454Z,46.40
2023-02-22T20:51:11.383Z,47.28
2023-02-22T20:54:17.312Z,43.75
2023-02-22T20:57:22.039Z,49.05
2023-02-22T21:00:29.437Z,48.10
2023-02-22T21:03:35.692Z,46.75
2023-02-22T21:06:41.325Z,44.13
2023-02-22T21:09:46.280Z,44.83
2023-02-22T21:12:52.349Z,46.30
2023-02-22T21:15:57.068Z,47.60
2023-02-22T21:19:05.912Z,50.40
2023-02-22T21:22:10.881Z,48.03
2023-02-22T21:25:16.635Z,48.45
2023-02-22T21:28:21.727Z,51.08
2023-02-22T21:31:28.440Z,52.65
2023-02-22T21:34:33.992Z,54.83
2023-02-22T21:37:39.038Z,48.60
2023-02-22T21:40:46.858Z,47.05
2023-02-22T21:43:52.250Z,51.63
2023-02-22T21:46:57.304Z,47.20
2023-02-22T21:50:01.912Z,49.97
2023-02-22T21:53:06.442Z,54.15
2023-02-22T21:56:15.282Z,47.90
2023-02-22T21:59:23.878Z,50.15
2023-02-22T22:02:29.219Z,54.35
2023-02-22T22:05:34.678Z,49.38
2023-02-22T22:08:41.860Z,53.38
2023-02-22T22:11:52.176Z,55.65
2023-02-22T22:14:57.160Z,53.55
2023-02-22T22:18:06.635Z,51.88
2023-02-22T22:21:24.132Z,52.20
2023-02-22T22:24:32.072Z,50.83
2023-02-22T22:27:37.100Z,51.13
2023-02-22T22:30:43.484Z,49.70
2023-02-22T22:33:48.506Z,61.75
2023-02-22T22:36:53.020Z,59.13
2023-02-22T22:39:58.532Z,58.13
2023-02-22T22:43:06.147Z,56.78
2023-02-22T22:46:12.481Z,58.33
2023-02-22T22:49:17.334Z,56.75
2023-02-22T22:52:21.815Z,57.72
2023-02-22T22:55:26.339Z,55.72
2023-02-22T22:58:33.802Z,53.97
2023-02-22T23:01:44.746Z,62.00
2023-02-22T23:04:51.598Z,57.22
2023-02-22T23:07:57.071Z,57.70
2023-02-22T23:11:09.124Z,55.50
2023-02-22T23:14:24.035Z,53.45
2023-02-22T23:17:40.691Z,54.65
2023-02-22T23:20:45.194Z,59.22
2023-02-22T23:23:52.221Z,54.25
2023-02-22T23:27:00.333Z,58.58
2023-02-22T23:30:06.725Z,57.33
2023-02-22T23:33:11.255Z,59.50
2023-02-22T23:36:18.156Z,58.03
2023-02-22T23:39:24.444Z,62.08
2023-02-22T23:42:29.061Z,60.80
2023-02-22T23:45:38.578Z,60.92
2023-02-22T23:48:50.724Z,55.30
2023-02-22T23:51:55.621Z,55.60
2023-02-22T23:55:01.987Z,56.55
2023-02-22T23:58:06.501Z,55.92
